sensor_id;sensor_type;location;lat;lon;timestamp;pressure;altitude;pressure_sealevel;temperature;humidity
2188;BME280;1100;52.014;8.540;2023-02-13T00:00:23;102352.50;;;5.85;95.29
2188;BME280;1100;52.014;8.540;2023-02-13T00:02:50;102347.00;;;5.85;95.60
2188;BME280;1100;52.014;8.540;2023-02-13T00:05:15;102350.88;;;5.84;95.53
2188;BME280;1100;52.014;8.540;2023-02-13T00:07:40;102352.16;;;5.86;95.24
2188;BME280;1100;52.014;8.540;2023-02-13T00:10:07;102349.41;;;5.86;95.21
2188;BME280;1100;52.014;8.540;2023-02-13T00:12:32;102356.41;;;5.84;95.29
2188;BME280;1100;52.014;8.540;2023-02-13T00:14:58;102344.13;;;5.81;95.47
2188;BME280;1100;52.014;8.540;2023-02-13T00:17:24;102346.88;;;5.81;95.51
2188;BME280;1100;52.014;8.540;2023-02-13T00:19:50;102350.34;;;5.78;95.41
2188;BME280;1100;52.014;8.540;2023-02-13T00:22:16;102357.03;;;5.77;95.58
2188;BME280;1100;52.014;8.540;2023-02-13T00:24:41;102344.00;;;5.78;95.40
2188;BME280;1100;52.014;8.540;2023-02-13T00:27:07;102348.75;;;5.77;95.44
2188;BME280;1100;52.014;8.540;2023-02-13T00:29:32;102344.81;;;5.78;95.56
2188;BME280;1100;52.014;8.540;2023-02-13T00:31:58;102348.41;;;5.79;95.38
2188;BME280;1100;52.014;8.540;2023-02-13T00:34:24;102354.69;;;5.79;95.44
2188;BME280;1100;52.014;8.540;2023-02-13T00:36:49;102350.00;;;5.80;95.55
2188;BME280;1100;52.014;8.540;2023-02-13T00:39:14;102351.94;;;5.79;95.56
2188;BME280;1100;52.014;8.540;2023-02-13T00:41:40;102347.94;;;5.77;95.35
2188;BME280;1100;52.014;8.540;2023-02-13T00:44:05;102345.16;;;5.77;95.38
2188;BME280;1100;52.014;8.540;2023-02-13T00:46:30;102340.81;;;5.76;95.22
2188;BME280;1100;52.014;8.540;2023-02-13T00:48:55;102340.00;;;5.75;95.63
2188;BME280;1100;52.014;8.540;2023-02-13T00:51:21;102344.00;;;5.78;95.44
2188;BME280;1100;52.014;8.540;2023-02-13T00:53:46;102343.22;;;5.77;95.38
2188;BME280;1100;52.014;8.540;2023-02-13T00:56:33;102339.31;;;5.78;95.34
2188;BME280;1100;52.014;8.540;2023-02-13T00:58:59;102346.00;;;5.77;95.68
2188;BME280;1100;52.014;8.540;2023-02-13T01:01:24;102351.84;;;5.76;95.61
2188;BME280;1100;52.014;8.540;2023-02-13T01:03:50;102341.94;;;5.74;95.63
2188;BME280;1100;52.014;8.540;2023-02-13T01:06:15;102351.84;;;5.76;95.77
2188;BME280;1100;52.014;8.540;2023-02-13T01:08:40;102347.47;;;5.74;95.54
2188;BME280;1100;52.014;8.540;2023-02-13T01:11:06;102346.34;;;5.76;95.43
2188;BME280;1100;52.014;8.540;2023-02-13T01:13:32;102339.19;;;5.74;95.66
2188;BME280;1100;52.014;8.540;2023-02-13T01:15:57;102335.31;;;5.76;95.62
2188;BME280;1100;52.014;8.540;2023-02-13T01:18:23;102339.66;;;5.77;95.72
2188;BME280;1100;52.014;8.540;2023-02-13T01:21:05;102342.41;;;5.77;95.78
2188;BME280;1100;52.014;8.540;2023-02-13T01:23:36;102342.41;;;5.77;95.71
2188;BME280;1100;52.014;8.540;2023-02-13T01:26:03;102344.81;;;5.78;95.44
2188;BME280;1100;52.014;8.540;2023-02-13T01:28:29;102347.22;;;5.80;95.69
2188;BME280;1100;52.014;8.540;2023-02-13T01:30:55;102338.13;;;5.79;95.67
2188;BME280;1100;52.014;8.540;2023-02-13T01:33:22;102342.06;;;5.78;95.27
2188;BME280;1100;52.014;8.540;2023-02-13T01:35:48;102338.50;;;5.78;95.76
2188;BME280;1100;52.014;8.540;2023-02-13T01:38:13;102338.13;;;5.79;95.70
2188;BME280;1100;52.014;8.540;2023-02-13T01:40:44;102333.78;;;5.78;95.47
2188;BME280;1100;52.014;8.540;2023-02-13T01:43:11;102331.84;;;5.79;95.44
2188;BME280;1100;52.014;8.540;2023-02-13T01:45:37;102328.25;;;5.78;95.57
2188;BME280;1100;52.014;8.540;2023-02-13T01:48:06;102332.19;;;5.77;95.54
2188;BME280;1100;52.014;8.540;2023-02-13T01:50:47;102336.09;;;5.76;95.44
2188;BME280;1100;52.014;8.540;2023-02-13T01:53:21;102336.91;;;5.77;95.56
2188;BME280;1100;52.014;8.540;2023-02-13T01:55:52;102333.78;;;5.78;95.51
2188;BME280;1100;52.014;8.540;2023-02-13T01:58:23;102329.78;;;5.76;95.41
2188;BME280;1100;52.014;8.540;2023-02-13T02:00:50;102331.38;;;5.77;95.47
2188;BME280;1100;52.014;8.540;2023-02-13T02:05:55;102325.84;;;5.77;95.61
2188;BME280;1100;52.014;8.540;2023-02-13T02:08:22;102317.47;;;5.73;95.43
2188;BME280;1100;52.014;8.540;2023-02-13T02:10:48;102326.19;;;5.75;95.45
2188;BME280;1100;52.014;8.540;2023-02-13T02:13:18;102317.94;;;5.75;95.32
2188;BME280;1100;52.014;8.540;2023-02-13T02:15:45;102321.03;;;5.73;95.37
2188;BME280;1100;52.014;8.540;2023-02-13T02:18:19;102320.22;;;5.73;95.39
2188;BME280;1100;52.014;8.540;2023-02-13T02:48:06;102311.75;;;5.66;95.19
2188;BME280;1100;52.014;8.540;2023-02-13T02:53:37;102299.13;;;5.65;95.39
2188;BME280;1100;52.014;8.540;2023-02-13T02:56:12;102300.25;;;5.64;95.32
2188;BME280;1100;52.014;8.540;2023-02-13T02:58:44;102295.91;;;5.63;95.26
2188;BME280;1100;52.014;8.540;2023-02-13T03:01:29;102286.38;;;5.60;95.56
2188;BME280;1100;52.014;8.540;2023-02-13T03:04:23;102282.44;;;5.61;95.24
2188;BME280;1100;52.014;8.540;2023-02-13T03:07:10;102289.13;;;5.60;95.65
2188;BME280;1100;52.014;8.540;2023-02-13T03:09:42;102286.72;;;5.58;95.26
2188;BME280;1100;52.014;8.540;2023-02-13T03:12:34;102272.47;;;5.56;95.28
2188;BME280;1100;52.014;8.540;2023-02-13T03:15:21;102279.16;;;5.55;95.22
2188;BME280;1100;52.014;8.540;2023-02-13T03:17:48;102270.06;;;5.55;95.51
2188;BME280;1100;52.014;8.540;2023-02-13T03:23:59;102269.16;;;5.51;95.22
2188;BME280;1100;52.014;8.540;2023-02-13T03:27:03;102271.47;;;5.48;95.27
2188;BME280;1100;52.014;8.540;2023-02-13T03:29:49;102275.38;;;5.47;95.43
2188;BME280;1100;52.014;8.540;2023-02-13T03:35:30;102277.22;;;5.43;95.05
2188;BME280;1100;52.014;8.540;2023-02-13T03:38:29;102277.56;;;5.42;95.15
2188;BME280;1100;52.014;8.540;2023-02-13T03:46:26;102291.34;;;5.42;95.38
2188;BME280;1100;52.014;8.540;2023-02-13T03:48:55;102288.59;;;5.42;95.39
2188;BME280;1100;52.014;8.540;2023-02-13T03:54:49;102285.84;;;5.42;95.49
2188;BME280;1100;52.014;8.540;2023-02-13T03:57:36;102279.88;;;5.40;95.50
2188;BME280;1100;52.014;8.540;2023-02-13T04:00:21;102285.75;;;5.38;95.47
2188;BME280;1100;52.014;8.540;2023-02-13T04:03:00;102279.41;;;5.38;95.27
2188;BME280;1100;52.014;8.540;2023-02-13T04:05:32;102290.44;;;5.38;95.35
2188;BME280;1100;52.014;8.540;2023-02-13T04:08:00;102281.38;;;5.37;95.32
2188;BME280;1100;52.014;8.540;2023-02-13T04:10:28;102287.34;;;5.39;95.39
2188;BME280;1100;52.014;8.540;2023-02-13T04:13:13;102278.25;;;5.39;95.05
2188;BME280;1100;52.014;8.540;2023-02-13T04:15:50;102285.28;;;5.36;95.17
2188;BME280;1100;52.014;8.540;2023-02-13T04:18:37;102288.03;;;5.36;95.47
2188;BME280;1100;52.014;8.540;2023-02-13T04:21:05;102287.59;;;5.34;95.37
2188;BME280;1100;52.014;8.540;2023-02-13T04:23:30;102289.22;;;5.35;95.22
2188;BME280;1100;52.014;8.540;2023-02-13T04:25:56;102287.69;;;5.38;95.55
2188;BME280;1100;52.014;8.540;2023-02-13T04:28:27;102290.91;;;5.40;95.34
2188;BME280;1100;52.014;8.540;2023-02-13T04:30:52;102294.81;;;5.39;95.19
2188;BME280;1100;52.014;8.540;2023-02-13T04:33:18;102290.91;;;5.40;95.41
2188;BME280;1100;52.014;8.540;2023-02-13T04:35:43;102294.81;;;5.39;95.36
2188;BME280;1100;52.014;8.540;2023-02-13T04:38:11;102289.28;;;5.39;95.20
2188;BME280;1100;52.014;8.540;2023-02-13T04:40:36;102295.16;;;5.37;95.17
2188;BME280;1100;52.014;8.540;2023-02-13T04:43:02;102293.22;;;5.38;95.34
2188;BME280;1100;52.014;8.540;2023-02-13T04:45:27;102289.28;;;5.39;95.42
2188;BME280;1100;52.014;8.540;2023-02-13T04:47:56;102287.34;;;5.39;95.30
2188;BME280;1100;52.014;8.540;2023-02-13T04:50:23;102283.34;;;5.36;95.35
2188;BME280;1100;52.014;8.540;2023-02-13T04:52:53;102279.41;;;5.38;95.45
2188;BME280;1100;52.014;8.540;2023-02-13T04:55:20;102279.06;;;5.39;95.20
2188;BME280;1100;52.014;8.540;2023-02-13T04:57:45;102281.38;;;5.37;95.45
2188;BME280;1100;52.014;8.540;2023-02-13T05:00:11;102280.13;;;5.34;95.00
2188;BME280;1100;52.014;8.540;2023-02-13T05:02:36;102276.91;;;5.32;95.12
2188;BME280;1100;52.014;8.540;2023-02-13T05:05:02;102276.91;;;5.32;95.12
2188;BME280;1100;52.014;8.540;2023-02-13T05:07:27;102278.06;;;5.31;95.00
2188;BME280;1100;52.014;8.540;2023-02-13T05:09:52;102276.44;;;5.30;94.91
2188;BME280;1100;52.014;8.540;2023-02-13T05:12:18;102278.06;;;5.31;95.18
2188;BME280;1100;52.014;8.540;2023-02-13T05:14:43;102272.09;;;5.29;95.42
2188;BME280;1100;52.014;8.540;2023-02-13T05:17:08;102273.25;;;5.28;95.23
2188;BME280;1100;52.014;8.540;2023-02-13T05:19:34;102266.91;;;5.28;95.23
2188;BME280;1100;52.014;8.540;2023-02-13T05:21:59;102271.63;;;5.27;95.22
2188;BME280;1100;52.014;8.540;2023-02-13T05:24:43;102271.63;;;5.27;95.25
2188;BME280;1100;52.014;8.540;2023-02-13T05:27:08;102277.94;;;5.28;95.31
2188;BME280;1100;52.014;8.540;2023-02-13T05:29:34;102278.28;;;5.26;95.48
2188;BME280;1100;52.014;8.540;2023-02-13T05:31:59;102282.66;;;5.27;95.39
2188;BME280;1100;52.014;8.540;2023-02-13T05:34:26;102282.22;;;5.25;95.29
2188;BME280;1100;52.014;8.540;2023-02-13T05:36:52;102286.91;;;5.24;95.32
2188;BME280;1100;52.014;8.540;2023-02-13T05:39:17;102283.81;;;5.26;95.28
2188;BME280;1100;52.014;8.540;2023-02-13T05:41:44;102287.72;;;5.25;95.17
2188;BME280;1100;52.014;8.540;2023-02-13T05:44:10;102280.59;;;5.24;95.28
2188;BME280;1100;52.014;8.540;2023-02-13T05:46:37;102287.72;;;5.25;95.17
2188;BME280;1100;52.014;8.540;2023-02-13T05:49:03;102275.06;;;5.24;95.32
2188;BME280;1100;52.014;8.540;2023-02-13T05:51:28;102288.50;;;5.26;94.91
2188;BME280;1100;52.014;8.540;2023-02-13T05:53:53;102289.66;;;5.24;95.35
2188;BME280;1100;52.014;8.540;2023-02-13T05:56:19;102291.19;;;5.22;95.35
2188;BME280;1100;52.014;8.540;2023-02-13T05:58:44;102290.84;;;5.23;95.18
2188;BME280;1100;52.014;8.540;2023-02-13T06:01:10;102289.22;;;5.22;95.25
2188;BME280;1100;52.014;8.540;2023-02-13T06:03:35;102287.72;;;5.25;95.02
2188;BME280;1100;52.014;8.540;2023-02-13T06:06:01;102293.25;;;5.25;95.19
2188;BME280;1100;52.014;8.540;2023-02-13T06:08:26;102292.78;;;5.23;94.86
2188;BME280;1100;52.014;8.540;2023-02-13T06:10:51;102299.81;;;5.20;95.13
2188;BME280;1100;52.014;8.540;2023-02-13T06:13:17;102302.56;;;5.20;95.33
2188;BME280;1100;52.014;8.540;2023-02-13T06:15:43;102296.22;;;5.20;95.06
2188;BME280;1100;52.014;8.540;2023-02-13T06:18:09;102299.81;;;5.20;95.31
2188;BME280;1100;52.014;8.540;2023-02-13T06:20:35;102299.00;;;5.20;95.12
2188;BME280;1100;52.014;8.540;2023-02-13T06:23:00;102306.44;;;5.19;95.34
2188;BME280;1100;52.014;8.540;2023-02-13T06:25:26;102315.53;;;5.20;95.13
2188;BME280;1100;52.014;8.540;2023-02-13T06:27:51;102307.25;;;5.20;95.20
2188;BME280;1100;52.014;8.540;2023-02-13T06:30:17;102308.41;;;5.19;95.01
2188;BME280;1100;52.014;8.540;2023-02-13T06:32:45;102309.56;;;5.18;95.00
2188;BME280;1100;52.014;8.540;2023-02-13T06:35:11;102313.47;;;5.17;94.94
2188;BME280;1100;52.014;8.540;2023-02-13T06:37:36;102316.22;;;5.17;95.20
2188;BME280;1100;52.014;8.540;2023-02-13T06:40:02;102318.97;;;5.17;95.38
2188;BME280;1100;52.014;8.540;2023-02-13T06:42:27;102317.03;;;5.17;95.48
2188;BME280;1100;52.014;8.540;2023-02-13T06:44:53;102313.13;;;5.18;95.06
2188;BME280;1100;52.014;8.540;2023-02-13T06:47:18;102313.59;;;5.20;95.22
2188;BME280;1100;52.014;8.540;2023-02-13T06:49:43;102318.28;;;5.20;95.34
2188;BME280;1100;52.014;8.540;2023-02-13T06:52:09;102319.53;;;5.22;95.14
2188;BME280;1100;52.014;8.540;2023-02-13T06:54:34;102328.63;;;5.23;95.12
2188;BME280;1100;52.014;8.540;2023-02-13T06:56:59;102330.56;;;5.22;95.18
2188;BME280;1100;52.014;8.540;2023-02-13T06:59:24;102332.06;;;5.20;94.97
2188;BME280;1100;52.014;8.540;2023-02-13T07:01:50;102330.47;;;5.19;95.24
2188;BME280;1100;52.014;8.540;2023-02-13T07:04:15;102330.91;;;5.21;95.10
2188;BME280;1100;52.014;8.540;2023-02-13T07:06:40;102329.78;;;5.22;95.03
2188;BME280;1100;52.014;8.540;2023-02-13T07:09:06;102331.72;;;5.21;95.24
2188;BME280;1100;52.014;8.540;2023-02-13T07:11:31;102326.69;;;5.23;95.00
2188;BME280;1100;52.014;8.540;2023-02-13T07:13:57;102329.44;;;5.23;95.14
2188;BME280;1100;52.014;8.540;2023-02-13T07:16:22;102337.38;;;5.25;95.33
2188;BME280;1100;52.014;8.540;2023-02-13T07:18:48;102337.81;;;5.27;95.34
2188;BME280;1100;52.014;8.540;2023-02-13T07:21:13;102340.22;;;5.29;95.41
2188;BME280;1100;52.014;8.540;2023-02-13T07:23:39;102333.09;;;5.28;95.25
2188;BME280;1100;52.014;8.540;2023-02-13T07:26:04;102331.16;;;5.28;95.32
2188;BME280;1100;52.014;8.540;2023-02-13T07:28:30;102336.19;;;5.26;95.34
2188;BME280;1100;52.014;8.540;2023-02-13T07:30:55;102333.09;;;5.28;94.97
2188;BME280;1100;52.014;8.540;2023-02-13T07:33:21;102338.72;;;5.31;95.30
2188;BME280;1100;52.014;8.540;2023-02-13T07:35:49;102339.50;;;5.32;95.13
2188;BME280;1100;52.014;8.540;2023-02-13T07:38:15;102341.50;;;5.31;95.33
2188;BME280;1100;52.014;8.540;2023-02-13T07:40:40;102339.19;;;5.33;95.05
2188;BME280;1100;52.014;8.540;2023-02-13T07:43:06;102338.50;;;5.36;95.30
2188;BME280;1100;52.014;8.540;2023-02-13T07:45:31;102341.25;;;5.36;95.28
2188;BME280;1100;52.014;8.540;2023-02-13T07:47:57;102343.56;;;5.34;95.16
2188;BME280;1100;52.014;8.540;2023-02-13T07:50:22;102351.00;;;5.34;95.16
2188;BME280;1100;52.014;8.540;2023-02-13T07:52:59;102349.06;;;5.34;95.16
2188;BME280;1100;52.014;8.540;2023-02-13T07:55:25;102350.66;;;5.35;95.16
2188;BME280;1100;52.014;8.540;2023-02-13T07:57:51;102342.41;;;5.35;94.95
2188;BME280;1100;52.014;8.540;2023-02-13T08:00:18;102352.66;;;5.35;94.93
2188;BME280;1100;52.014;8.540;2023-02-13T08:02:44;102338.84;;;5.35;94.95
2188;BME280;1100;52.014;8.540;2023-02-13T08:05:10;102351.47;;;5.36;95.15
2188;BME280;1100;52.014;8.540;2023-02-13T08:07:35;102347.56;;;5.37;95.13
2188;BME280;1100;52.014;8.540;2023-02-13T08:10:01;102347.56;;;5.37;94.76
2188;BME280;1100;52.014;8.540;2023-02-13T08:12:45;102350.78;;;5.39;94.91
2188;BME280;1100;52.014;8.540;2023-02-13T08:15:12;102349.28;;;5.42;95.16
2188;BME280;1100;52.014;8.540;2023-02-13T08:17:38;102353.31;;;5.44;95.21
2188;BME280;1100;52.014;8.540;2023-02-13T08:20:05;102351.00;;;5.46;95.04
2188;BME280;1100;52.014;8.540;2023-02-13T08:22:34;102346.09;;;5.40;94.65
2188;BME280;1100;52.014;8.540;2023-02-13T08:25:00;102344.03;;;5.36;94.56
2188;BME280;1100;52.014;8.540;2023-02-13T08:27:26;102340.44;;;5.36;94.78
2188;BME280;1100;52.014;8.540;2023-02-13T08:29:54;102344.47;;;5.39;95.19
2188;BME280;1100;52.014;8.540;2023-02-13T08:32:19;102347.00;;;5.44;95.33
2188;BME280;1100;52.014;8.540;2023-02-13T08:34:45;102345.47;;;5.46;95.22
2188;BME280;1100;52.014;8.540;2023-02-13T08:37:10;102341.59;;;5.47;95.26
2188;BME280;1100;52.014;8.540;2023-02-13T08:39:35;102342.84;;;5.50;95.45
2188;BME280;1100;52.014;8.540;2023-02-13T08:42:01;102342.13;;;5.53;95.20
2188;BME280;1100;52.014;8.540;2023-02-13T08:44:26;102341.91;;;5.58;95.25
2188;BME280;1100;52.014;8.540;2023-02-13T08:46:52;102352.25;;;5.61;95.15
2188;BME280;1100;52.014;8.540;2023-02-13T08:49:17;102354.31;;;5.65;95.08
2188;BME280;1100;52.014;8.540;2023-02-13T08:51:42;102342.56;;;5.68;95.13
2188;BME280;1100;52.014;8.540;2023-02-13T08:54:08;102349.69;;;5.69;94.86
2188;BME280;1100;52.014;8.540;2023-02-13T08:56:33;102348.16;;;5.71;95.06
2188;BME280;1100;52.014;8.540;2023-02-13T08:58:59;102347.94;;;5.77;95.14
2188;BME280;1100;52.014;8.540;2023-02-13T09:01:24;102355.97;;;5.82;95.13
2188;BME280;1100;52.014;8.540;2023-02-13T09:03:50;102357.47;;;5.79;94.87
2188;BME280;1100;52.014;8.540;2023-02-13T09:06:15;102353.56;;;5.80;94.53
2188;BME280;1100;52.014;8.540;2023-02-13T09:08:40;102358.97;;;5.77;95.08
2188;BME280;1100;52.014;8.540;2023-02-13T09:11:06;102356.56;;;5.75;94.63
2188;BME280;1100;52.014;8.540;2023-02-13T09:13:32;102356.09;;;5.73;95.11
2188;BME280;1100;52.014;8.540;2023-02-13T09:16:07;102352.09;;;5.70;95.01
2188;BME280;1100;52.014;8.540;2023-02-13T09:18:33;102366.00;;;5.74;94.53
2188;BME280;1100;52.014;8.540;2023-02-13T09:21:05;102359.31;;;5.75;94.60
2188;BME280;1100;52.014;8.540;2023-02-13T09:23:32;102357.09;;;5.81;94.97
2188;BME280;1100;52.014;8.540;2023-02-13T09:26:03;102360.09;;;5.88;95.03
2188;BME280;1100;52.014;8.540;2023-02-13T09:28:29;102349.13;;;5.92;94.88
2188;BME280;1100;52.014;8.540;2023-02-13T09:30:55;102352.34;;;5.94;94.73
2188;BME280;1100;52.014;8.540;2023-02-13T09:33:21;102358.78;;;5.98;94.71
2188;BME280;1100;52.014;8.540;2023-02-13T09:35:46;102364.06;;;6.03;95.13
2188;BME280;1100;52.014;8.540;2023-02-13T09:38:11;102357.84;;;6.06;94.96
2188;BME280;1100;52.014;8.540;2023-02-13T09:40:42;102358.31;;;6.08;95.09
2188;BME280;1100;52.014;8.540;2023-02-13T09:45:42;102356.44;;;6.13;94.84
2188;BME280;1100;52.014;8.540;2023-02-13T09:48:16;102363.13;;;6.12;94.42
2188;BME280;1100;52.014;8.540;2023-02-13T09:50:42;102365.53;;;6.13;94.53
2188;BME280;1100;52.014;8.540;2023-02-13T09:53:17;102364.84;;;6.16;94.63
2188;BME280;1100;52.014;8.540;2023-02-13T09:55:55;102364.56;;;6.21;94.81
2188;BME280;1100;52.014;8.540;2023-02-13T10:07:11;102369.72;;;6.23;93.92
2188;BME280;1100;52.014;8.540;2023-02-13T10:10:01;102372.25;;;6.28;94.14
2188;BME280;1100;52.014;8.540;2023-02-13T10:15:17;102371.34;;;6.24;93.78
2188;BME280;1100;52.014;8.540;2023-02-13T10:17:49;102372.97;;;6.25;94.16
2188;BME280;1100;52.014;8.540;2023-02-13T10:20:34;102374.66;;;6.30;94.46
2188;BME280;1100;52.014;8.540;2023-02-13T10:23:35;102366.31;;;6.42;94.89
2188;BME280;1100;52.014;8.540;2023-02-13T10:26:26;102365.16;;;6.59;94.84
2188;BME280;1100;52.014;8.540;2023-02-13T10:29:12;102371.41;;;6.72;94.69
2188;BME280;1100;52.014;8.540;2023-02-13T10:32:01;102356.97;;;6.79;94.50
2188;BME280;1100;52.014;8.540;2023-02-13T10:34:35;102372.16;;;6.85;94.54
2188;BME280;1100;52.014;8.540;2023-02-13T10:37:08;102364.22;;;6.84;93.74
2188;BME280;1100;52.014;8.540;2023-02-13T10:39:36;102365.53;;;6.90;94.28
2188;BME280;1100;52.014;8.540;2023-02-13T10:45:18;102365.34;;;7.15;94.46
2188;BME280;1100;52.014;8.540;2023-02-13T10:48:17;102365.69;;;7.14;94.14
2188;BME280;1100;52.014;8.540;2023-02-13T10:50:50;102370.41;;;7.13;94.09
2188;BME280;1100;52.014;8.540;2023-02-13T10:56:09;102364.00;;;6.93;93.48
2188;BME280;1100;52.014;8.540;2023-02-13T10:58:53;102360.63;;;6.83;93.06
2188;BME280;1100;52.014;8.540;2023-02-13T11:03:48;102356.88;;;6.92;94.22
2188;BME280;1100;52.014;8.540;2023-02-13T11:06:24;102356.19;;;6.95;93.96
2188;BME280;1100;52.014;8.540;2023-02-13T11:08:49;102347.88;;;6.95;93.85
2188;BME280;1100;52.014;8.540;2023-02-13T11:11:32;102350.44;;;7.04;93.82
2188;BME280;1100;52.014;8.540;2023-02-13T11:14:16;102355.34;;;7.10;94.17
2188;BME280;1100;52.014;8.540;2023-02-13T11:17:03;102342.84;;;7.17;93.99
2188;BME280;1100;52.014;8.540;2023-02-13T11:19:47;102340.09;;;7.17;93.91
2188;BME280;1100;52.014;8.540;2023-02-13T11:25:24;102347.09;;;7.30;94.04
2188;BME280;1100;52.014;8.540;2023-02-13T11:28:16;102347.97;;;7.34;93.98
2188;BME280;1100;52.014;8.540;2023-02-13T11:30:41;102344.91;;;7.40;93.62
2188;BME280;1100;52.014;8.540;2023-02-13T11:35:42;102334.81;;;7.47;93.69
2188;BME280;1100;52.014;8.540;2023-02-13T11:40:40;102333.72;;;7.32;93.39
2188;BME280;1100;52.014;8.540;2023-02-13T11:43:17;102329.16;;;7.24;93.59
2188;BME280;1100;52.014;8.540;2023-02-13T11:45:43;102337.47;;;7.24;93.58
2188;BME280;1100;52.014;8.540;2023-02-13T11:48:20;102333.88;;;7.23;93.13
2188;BME280;1100;52.014;8.540;2023-02-13T11:50:51;102330.97;;;7.16;92.69
2188;BME280;1100;52.014;8.540;2023-02-13T11:53:22;102321.72;;;7.08;92.82
2188;BME280;1100;52.014;8.540;2023-02-13T11:56:06;102320.53;;;7.09;93.33
2188;BME280;1100;52.014;8.540;2023-02-13T11:58:33;102322.88;;;7.07;93.28
2188;BME280;1100;52.014;8.540;2023-02-13T12:01:23;102326.72;;;7.03;93.36
2188;BME280;1100;52.014;8.540;2023-02-13T12:04:13;102327.34;;;6.96;93.33
2188;BME280;1100;52.014;8.540;2023-02-13T12:07:03;102317.81;;;6.93;93.59
2188;BME280;1100;52.014;8.540;2023-02-13T12:09:29;102318.09;;;6.88;93.50
2188;BME280;1100;52.014;8.540;2023-02-13T12:11:58;102319.16;;;6.83;93.20
2188;BME280;1100;52.014;8.540;2023-02-13T12:14:30;102314.25;;;6.77;93.34
2188;BME280;1100;52.014;8.540;2023-02-13T12:17:07;102312.66;;;6.76;93.47
2188;BME280;1100;52.014;8.540;2023-02-13T12:19:46;102308.31;;;6.75;93.40
2188;BME280;1100;52.014;8.540;2023-02-13T12:33:28;102278.94;;;8.99;91.89
2188;BME280;1100;52.014;8.540;2023-02-13T12:41:53;102281.03;;;10.08;90.78
2188;BME280;1100;52.014;8.540;2023-02-13T12:44:37;102279.59;;;10.29;90.16
2188;BME280;1100;52.014;8.540;2023-02-13T12:47:17;102271.16;;;10.64;90.35
2188;BME280;1100;52.014;8.540;2023-02-13T12:52:41;102264.63;;;10.94;90.84
2188;BME280;1100;52.014;8.540;2023-02-13T13:09:19;102243.66;;;10.02;89.42
2188;BME280;1100;52.014;8.540;2023-02-13T13:12:07;102237.34;;;10.05;89.80
2188;BME280;1100;52.014;8.540;2023-02-13T13:15:36;102234.25;;;10.18;90.35
2188;BME280;1100;52.014;8.540;2023-02-13T13:18:44;102224.00;;;10.26;91.03
2188;BME280;1100;52.014;8.540;2023-02-13T13:23:38;102225.50;;;10.16;90.98
2188;BME280;1100;52.014;8.540;2023-02-13T13:26:22;102228.94;;;10.02;90.23
2188;BME280;1100;52.014;8.540;2023-02-13T13:28:54;102219.81;;;10.01;90.36
2188;BME280;1100;52.014;8.540;2023-02-13T13:31:21;102223.91;;;10.15;90.83
2188;BME280;1100;52.014;8.540;2023-02-13T13:33:50;102226.28;;;10.13;91.28
2188;BME280;1100;52.014;8.540;2023-02-13T13:42:07;102222.38;;;10.25;90.60
2188;BME280;1100;52.014;8.540;2023-02-13T13:48:04;102223.88;;;10.64;90.48
2188;BME280;1100;52.014;8.540;2023-02-13T13:50:39;102226.34;;;10.73;90.02
2188;BME280;1100;52.014;8.540;2023-02-13T13:58:22;102226.97;;;11.22;89.88
2188;BME280;1100;52.014;8.540;2023-02-13T14:03:39;102225.84;;;11.38;88.59
2188;BME280;1100;52.014;8.540;2023-02-13T14:06:09;102219.88;;;11.36;88.80
2188;BME280;1100;52.014;8.540;2023-02-13T14:11:03;102209.97;;;11.42;88.75
2188;BME280;1100;52.014;8.540;2023-02-13T14:13:34;102205.63;;;11.55;89.35
2188;BME280;1100;52.014;8.540;2023-02-13T14:16:01;102208.81;;;11.57;87.91
2188;BME280;1100;52.014;8.540;2023-02-13T14:18:27;102203.25;;;11.72;88.09
2188;BME280;1100;52.014;8.540;2023-02-13T14:20:59;102204.47;;;12.04;88.15
2188;BME280;1100;52.014;8.540;2023-02-13T14:23:47;102202.50;;;12.37;88.07
2188;BME280;1100;52.014;8.540;2023-02-13T14:33:54;102189.09;;;13.25;86.95
2188;BME280;1100;52.014;8.540;2023-02-13T14:36:22;102200.53;;;13.53;86.21
2188;BME280;1100;52.014;8.540;2023-02-13T14:38:58;102199.75;;;13.52;85.36
2188;BME280;1100;52.014;8.540;2023-02-13T14:44:22;102195.38;;;13.48;84.69
2188;BME280;1100;52.014;8.540;2023-02-13T14:46:50;102199.69;;;13.60;85.53
2188;BME280;1100;52.014;8.540;2023-02-13T14:49:21;102194.03;;;13.70;85.71
2188;BME280;1100;52.014;8.540;2023-02-13T14:51:54;102201.19;;;13.75;85.59
2188;BME280;1100;52.014;8.540;2023-02-13T14:56:47;102185.06;;;13.33;84.15
2188;BME280;1100;52.014;8.540;2023-02-13T14:59:16;102187.13;;;13.15;84.83
2188;BME280;1100;52.014;8.540;2023-02-13T15:01:50;102184.88;;;12.80;84.01
2188;BME280;1100;52.014;8.540;2023-02-13T15:04:30;102184.16;;;12.51;84.47
2188;BME280;1100;52.014;8.540;2023-02-13T15:07:01;102192.13;;;12.41;85.61
2188;BME280;1100;52.014;8.540;2023-02-13T15:09:33;102186.94;;;12.54;85.91
2188;BME280;1100;52.014;8.540;2023-02-13T15:12:00;102180.97;;;12.41;85.36
2188;BME280;1100;52.014;8.540;2023-02-13T15:14:35;102181.03;;;12.12;84.67
2188;BME280;1100;52.014;8.540;2023-02-13T15:17:13;102176.16;;;11.58;85.00
2188;BME280;1100;52.014;8.540;2023-02-13T15:19:45;102179.56;;;10.93;85.69
2188;BME280;1100;52.014;8.540;2023-02-13T15:22:20;102172.00;;;10.30;85.73
2188;BME280;1100;52.014;8.540;2023-02-13T15:24:47;102173.19;;;9.80;86.62
2188;BME280;1100;52.014;8.540;2023-02-13T15:27:37;102164.38;;;9.32;86.83
2188;BME280;1100;52.014;8.540;2023-02-13T15:30:28;102160.28;;;9.19;87.15
2188;BME280;1100;52.014;8.540;2023-02-13T15:33:00;102163.97;;;9.30;87.95
2188;BME280;1100;52.014;8.540;2023-02-13T15:35:29;102157.72;;;9.03;87.77
2188;BME280;1100;52.014;8.540;2023-02-13T15:37:55;102152.81;;;8.62;87.74
2188;BME280;1100;52.014;8.540;2023-02-13T15:40:29;102162.94;;;8.23;88.00
2188;BME280;1100;52.014;8.540;2023-02-13T15:42:56;102156.38;;;7.84;88.11
2188;BME280;1100;52.014;8.540;2023-02-13T15:45:24;102155.50;;;7.57;88.67
2188;BME280;1100;52.014;8.540;2023-02-13T15:47:51;102162.22;;;7.36;88.94
2188;BME280;1100;52.014;8.540;2023-02-13T15:50:23;102165.81;;;7.17;89.44
2188;BME280;1100;52.014;8.540;2023-02-13T15:52:51;102161.94;;;7.02;89.47
2188;BME280;1100;52.014;8.540;2023-02-13T15:55:22;102162.03;;;6.85;89.29
2188;BME280;1100;52.014;8.540;2023-02-13T15:57:49;102156.63;;;6.73;89.91
2188;BME280;1100;52.014;8.540;2023-02-13T16:00:22;102164.75;;;6.66;90.05
2188;BME280;1100;52.014;8.540;2023-02-13T16:02:50;102166.91;;;6.56;90.14
2188;BME280;1100;52.014;8.540;2023-02-13T16:05:17;102158.03;;;6.47;89.92